createdAt,value
2022-08-19T00:02:04.446Z,3.53
2022-08-19T00:04:37.197Z,3.35
2022-08-19T00:07:07.778Z,3.88
2022-08-19T00:09:35.146Z,4.00
2022-08-19T00:12:02.335Z,3.17
2022-08-19T00:14:32.250Z,3.60
2022-08-19T00:16:59.745Z,3.35
2022-08-19T00:19:26.798Z,3.65
2022-08-19T00:21:54.315Z,4.00
2022-08-19T00:24:21.787Z,4.00
2022-08-19T00:26:48.638Z,3.85
2022-08-19T00:29:19.322Z,3.60
2022-08-19T00:31:47.675Z,3.95
2022-08-19T00:34:15.622Z,3.30
2022-08-19T00:36:43.889Z,3.30
2022-08-19T00:39:12.021Z,3.42
2022-08-19T00:41:40.255Z,3.35
2022-08-19T00:44:11.949Z,3.53
2022-08-19T00:46:42.777Z,3.95
2022-08-19T00:49:30.630Z,4.07
2022-08-19T00:52:16.088Z,4.40
2022-08-19T00:54:47.785Z,3.90
2022-08-19T00:57:21.935Z,3.97
2022-08-19T01:00:02.272Z,3.90
2022-08-19T01:02:31.455Z,3.90
2022-08-19T01:05:01.257Z,3.97
2022-08-19T01:07:28.310Z,4.00
2022-08-19T01:10:04.823Z,3.85
2022-08-19T01:12:31.935Z,3.80
2022-08-19T01:15:00.558Z,3.95
2022-08-19T01:17:28.374Z,4.00
2022-08-19T01:19:55.422Z,4.30
2022-08-19T01:22:31.401Z,4.20
2022-08-19T01:25:00.384Z,4.10
2022-08-19T01:27:29.565Z,4.55
2022-08-19T01:30:08.689Z,4.00
2022-08-19T01:32:35.882Z,3.90
2022-08-19T01:35:05.159Z,4.95
2022-08-19T01:37:55.895Z,4.75
2022-08-19T01:40:27.491Z,4.40
2022-08-19T01:42:55.161Z,4.03
2022-08-19T01:45:26.504Z,4.82
2022-08-19T01:48:01.115Z,4.70
2022-08-19T01:50:31.750Z,4.30
2022-08-19T01:53:02.384Z,3.92
2022-08-19T01:55:36.357Z,4.10
2022-08-19T01:58:19.637Z,4.28
2022-08-19T02:00:48.178Z,4.88
2022-08-19T02:03:15.362Z,4.78
2022-08-19T02:05:43.813Z,4.57
2022-08-19T02:08:12.216Z,4.55
2022-08-19T02:10:44.723Z,4.25
2022-08-19T02:13:14.385Z,5.38
2022-08-19T02:15:41.773Z,4.65
2022-08-19T02:18:09.318Z,4.65
2022-08-19T02:20:39.401Z,4.45
2022-08-19T02:23:13.717Z,4.72
2022-08-19T02:25:47.916Z,4.35
2022-08-19T02:28:18.566Z,4.50
2022-08-19T02:30:49.344Z,4.72
2022-08-19T02:33:17.268Z,4.50
2022-08-19T02:35:46.715Z,4.68
2022-08-19T02:38:27.154Z,4.53
2022-08-19T02:41:01.853Z,4.90
2022-08-19T02:43:33.726Z,4.63
2022-08-19T02:46:02.232Z,4.68
2022-08-19T02:48:29.496Z,5.00
2022-08-19T02:50:56.564Z,4.78
2022-08-19T02:53:27.690Z,4.82
2022-08-19T02:55:55.587Z,4.03
2022-08-19T02:58:24.096Z,4.75
2022-08-19T03:00:57.594Z,4.47
2022-08-19T03:03:24.761Z,4.35
2022-08-19T03:05:56.795Z,4.43
2022-08-19T03:08:26.694Z,5.28
2022-08-19T03:10:54.278Z,4.45
2022-08-19T03:13:21.732Z,4.57
2022-08-19T03:15:49.230Z,4.13
2022-08-19T03:18:17.977Z,5.00
2022-08-19T03:20:48.392Z,4.80
2022-08-19T03:23:17.353Z,4.75
2022-08-19T03:25:58.461Z,4.82
2022-08-19T03:28:35.362Z,4.93
2022-08-19T03:31:44.282Z,5.15
2022-08-19T03:33:54.657Z,5.50
2022-08-19T03:36:29.547Z,5.32
2022-08-19T03:39:00.857Z,5.03
2022-08-19T03:41:45.513Z,4.88
2022-08-19T03:46:48.520Z,4.97
2022-08-19T03:49:18.295Z,5.00
2022-08-19T03:51:47.661Z,5.30
2022-08-19T03:54:17.187Z,5.40
2022-08-19T03:56:47.615Z,4.97
2022-08-19T03:59:26.900Z,5.22
2022-08-19T04:01:57.578Z,5.35
2022-08-19T04:04:25.560Z,5.03
2022-08-19T04:06:57.047Z,4.70
2022-08-19T04:09:24.353Z,5.07
2022-08-19T04:11:55.043Z,5.40
2022-08-19T04:14:34.559Z,5.32
2022-08-19T04:17:05.703Z,4.20
2022-08-19T04:19:35.360Z,4.78
2022-08-19T04:22:03.426Z,5.10
2022-08-19T04:24:31.042Z,5.65
2022-08-19T04:26:59.807Z,5.07
2022-08-19T04:29:27.906Z,5.32
2022-08-19T04:31:57.335Z,6.07
2022-08-19T04:34:28.558Z,5.10
2022-08-19T04:36:58.946Z,5.80
2022-08-19T04:39:49.094Z,5.32
2022-08-19T04:42:37.589Z,6.40
2022-08-19T04:45:12.416Z,5.55
2022-08-19T04:50:26.965Z,5.78
2022-08-19T04:52:54.444Z,5.57
2022-08-19T04:55:21.726Z,5.40
2022-08-19T04:57:48.636Z,5.57
2022-08-19T05:00:15.755Z,5.60
2022-08-19T05:02:42.620Z,5.78
2022-08-19T05:05:10.445Z,5.50
2022-08-19T05:07:38.287Z,5.78
2022-08-19T05:10:07.473Z,4.97
2022-08-19T05:12:34.481Z,5.97
2022-08-19T05:15:04.143Z,6.10
2022-08-19T05:17:36.020Z,5.60
2022-08-19T05:20:26.120Z,5.50
2022-08-19T05:22:53.311Z,6.10
2022-08-19T05:25:22.767Z,6.13
2022-08-19T05:27:49.882Z,6.47
2022-08-19T05:30:17.981Z,7.35
2022-08-19T05:32:45.747Z,6.18
2022-08-19T05:35:13.284Z,7.30
2022-08-19T05:37:43.514Z,6.60
2022-08-19T05:40:11.594Z,6.90
2022-08-19T05:42:39.209Z,6.03
2022-08-19T05:45:07.309Z,7.10
2022-08-19T05:47:34.267Z,8.52
2022-08-19T05:50:04.941Z,8.30
2022-08-19T05:52:32.539Z,10.52
2022-08-19T05:55:00.517Z,10.27
2022-08-19T05:57:29.768Z,9.82
2022-08-19T05:59:58.837Z,9.77
2022-08-19T06:02:27.888Z,10.27
2022-08-19T06:04:54.952Z,9.98
2022-08-19T06:07:22.705Z,10.20
2022-08-19T06:09:59.791Z,11.27
2022-08-19T06:12:35.351Z,8.07
2022-08-19T06:15:14.360Z,11.07
2022-08-19T06:17:45.128Z,14.45
2022-08-19T06:20:15.884Z,18.48
2022-08-19T06:22:47.861Z,22.60
2022-08-19T06:25:16.032Z,21.73
2022-08-19T06:28:14.550Z,22.50
2022-08-19T06:30:30.523Z,23.30
2022-08-19T06:32:57.537Z,22.35
2022-08-19T06:35:24.690Z,23.38
2022-08-19T06:37:51.824Z,22.65
2022-08-19T06:40:18.839Z,22.80
2022-08-19T06:42:54.118Z,22.17
2022-08-19T06:45:24.554Z,21.85
2022-08-19T06:47:56.978Z,22.10
2022-08-19T06:50:26.937Z,21.08
2022-08-19T06:52:55.252Z,23.55
2022-08-19T06:55:22.594Z,22.70
2022-08-19T06:57:51.953Z,22.88
2022-08-19T07:00:19.093Z,24.13
2022-08-19T07:02:50.590Z,24.13
2022-08-19T07:05:23.406Z,24.45
2022-08-19T07:07:51.054Z,22.27
2022-08-19T07:10:19.293Z,23.67
2022-08-19T07:12:46.281Z,23.60
2022-08-19T07:15:13.955Z,23.30
2022-08-19T07:17:42.161Z,23.13
2022-08-19T07:20:11.210Z,24.15
2022-08-19T07:22:39.681Z,23.33
2022-08-19T07:25:10.370Z,23.33
2022-08-19T07:27:39.795Z,23.95
2022-08-19T07:30:11.617Z,24.85
2022-08-19T07:32:40.286Z,25.85
2022-08-19T07:35:08.409Z,25.88
2022-08-19T07:37:36.511Z,24.50
2022-08-19T07:40:06.737Z,25.52
2022-08-19T07:42:33.695Z,23.83
2022-08-19T07:45:00.696Z,23.17
2022-08-19T07:47:50.025Z,22.88
2022-08-19T07:50:20.257Z,20.33
2022-08-19T07:52:50.470Z,21.13
2022-08-19T07:55:40.057Z,20.58
2022-08-19T07:58:15.322Z,20.55
2022-08-19T08:00:45.197Z,20.83
2022-08-19T08:03:12.950Z,21.38
2022-08-19T08:05:58.763Z,21.98
2022-08-19T08:08:44.515Z,21.13
2022-08-19T08:11:20.516Z,22.23
2022-08-19T08:14:00.881Z,21.85
2022-08-19T08:16:39.520Z,20.25
2022-08-19T08:19:22.969Z,20.80
2022-08-19T08:21:57.858Z,21.27
2022-08-19T08:24:29.812Z,21.40
2022-08-19T08:27:02.041Z,20.23
2022-08-19T08:29:34.734Z,19.58
2022-08-19T08:32:02.795Z,16.65
2022-08-19T08:34:29.656Z,15.48
2022-08-19T08:36:56.847Z,14.00
2022-08-19T08:39:23.820Z,13.57
2022-08-19T08:41:56.920Z,13.68
2022-08-19T08:44:43.770Z,14.27
2022-08-19T08:47:18.061Z,14.85
2022-08-19T08:50:10.171Z,15.30
2022-08-19T08:52:49.484Z,16.50
2022-08-19T08:55:24.719Z,16.95
2022-08-19T08:58:02.802Z,16.77
2022-08-19T09:00:35.408Z,16.63
2022-08-19T09:03:17.267Z,14.52
2022-08-19T09:06:03.239Z,14.98
2022-08-19T09:11:50.697Z,13.18
2022-08-19T09:14:54.040Z,13.35
2022-08-19T09:17:28.397Z,14.65
2022-08-19T09:20:05.315Z,12.60
2022-08-19T09:22:33.082Z,14.30
2022-08-19T09:25:00.439Z,14.90
2022-08-19T09:27:41.810Z,13.82
2022-08-19T09:30:18.461Z,15.05
2022-08-19T09:32:46.548Z,14.18
2022-08-19T09:35:15.322Z,14.27
2022-08-19T09:37:44.339Z,14.52
2022-08-19T09:40:13.493Z,14.48
2022-08-19T09:42:50.412Z,15.30
2022-08-19T09:45:22.932Z,16.20
2022-08-19T09:47:54.284Z,15.93
2022-08-19T09:50:24.244Z,16.08
2022-08-19T09:52:55.335Z,15.35
2022-08-19T09:55:30.927Z,14.98
2022-08-19T09:58:03.134Z,17.25
2022-08-19T10:00:31.807Z,17.58
2022-08-19T10:02:58.872Z,15.93
2022-08-19T10:05:44.162Z,14.32
2022-08-19T10:08:13.195Z,16.67
2022-08-19T10:10:47.060Z,16.75
2022-08-19T10:13:18.239Z,17.08
2022-08-19T10:15:48.094Z,16.33
2022-08-19T10:18:21.054Z,15.90
2022-08-19T10:20:51.617Z,13.75
2022-08-19T10:23:21.939Z,15.75
2022-08-19T10:25:50.597Z,16.95
2022-08-19T10:28:19.482Z,15.30
2022-08-19T10:30:48.090Z,15.52
2022-08-19T10:33:16.019Z,16.05
2022-08-19T10:36:08.038Z,16.90
2022-08-19T10:38:35.401Z,15.93
2022-08-19T10:41:15.207Z,15.10
2022-08-19T10:43:43.454Z,14.98
2022-08-19T10:46:16.706Z,18.98
2022-08-19T10:48:45.111Z,15.65
2022-08-19T10:51:31.298Z,16.08
2022-08-19T10:53:59.254Z,16.63
2022-08-19T10:56:49.558Z,16.35
2022-08-19T10:59:18.537Z,14.75
2022-08-19T11:01:46.929Z,14.43
2022-08-19T11:04:15.891Z,26.25
2022-08-19T11:06:44.256Z,15.15
2022-08-19T11:09:34.257Z,15.55
2022-08-19T11:12:10.511Z,13.52
2022-08-19T11:14:38.647Z,12.50
2022-08-19T11:17:06.878Z,12.13
2022-08-19T11:19:37.606Z,11.30
2022-08-19T11:22:04.775Z,11.43
2022-08-19T11:24:33.616Z,9.05
2022-08-19T11:27:10.743Z,7.72
2022-08-19T11:29:40.058Z,7.65
2022-08-19T11:32:12.508Z,10.00
2022-08-19T11:34:40.178Z,9.90
2022-08-19T11:37:07.587Z,8.65
2022-08-19T11:39:42.045Z,8.35
2022-08-19T11:42:46.533Z,6.97
2022-08-19T11:45:21.965Z,6.80
2022-08-19T11:48:12.465Z,6.57
2022-08-19T11:50:43.044Z,8.05
2022-08-19T11:53:14.031Z,7.40
2022-08-19T11:55:43.388Z,7.97
2022-08-19T11:58:27.397Z,6.55
2022-08-19T12:00:55.668Z,5.70
2022-08-19T12:03:25.599Z,5.97
2022-08-19T12:05:52.717Z,5.38
2022-08-19T12:08:20.248Z,5.55
2022-08-19T12:10:49.658Z,5.88
2022-08-19T12:13:19.233Z,6.05
2022-08-19T12:15:51.229Z,5.38
2022-08-19T12:18:18.169Z,4.20
2022-08-19T12:20:46.734Z,5.57
2022-08-19T12:27:32.110Z,4.47
2022-08-19T12:33:11.797Z,4.07
2022-08-19T12:35:48.581Z,3.80
2022-08-19T12:38:25.198Z,3.72
2022-08-19T12:40:55.090Z,3.70
2022-08-19T12:43:24.184Z,2.92
2022-08-19T12:45:51.931Z,3.25
2022-08-19T12:48:33.254Z,3.20
2022-08-19T12:51:02.946Z,2.83
2022-08-19T12:53:30.036Z,3.33
2022-08-19T12:55:59.047Z,4.15
2022-08-19T12:58:27.540Z,4.13
2022-08-19T13:00:57.449Z,3.90
2022-08-19T13:03:30.056Z,3.97
2022-08-19T13:05:57.684Z,3.65
2022-08-19T13:08:26.824Z,3.53
2022-08-19T13:10:54.458Z,3.90
2022-08-19T13:13:21.432Z,3.10
2022-08-19T13:15:48.395Z,3.40
2022-08-19T13:18:15.505Z,3.03
2022-08-19T13:20:43.322Z,3.03
2022-08-19T13:23:19.930Z,3.00
2022-08-19T13:25:58.760Z,3.97
2022-08-19T13:28:29.160Z,3.50
2022-08-19T13:31:15.047Z,4.32
2022-08-19T13:33:41.971Z,3.70
2022-08-19T13:36:09.603Z,4.20
2022-08-19T13:38:40.997Z,4.30
2022-08-19T13:41:12.163Z,4.07
2022-08-19T13:43:42.324Z,4.82
2022-08-19T13:46:15.915Z,4.65
2022-08-19T13:48:43.734Z,4.63
2022-08-19T13:51:11.783Z,4.70
2022-08-19T13:53:40.431Z,4.60
2022-08-19T13:56:11.711Z,5.20
2022-08-19T13:58:40.171Z,4.60
2022-08-19T14:01:10.242Z,5.30
2022-08-19T14:03:38.229Z,5.70
2022-08-19T14:06:05.795Z,5.60
2022-08-19T14:08:33.571Z,5.78
2022-08-19T14:11:01.634Z,5.68
2022-08-19T14:13:34.829Z,6.13
2022-08-19T14:16:02.085Z,6.40
2022-08-19T14:18:28.989Z,5.80
2022-08-19T14:20:57.943Z,5.63
2022-08-19T14:23:31.201Z,6.38
2022-08-19T14:26:12.525Z,5.60
2022-08-19T14:28:42.770Z,4.60
2022-08-19T14:31:19.355Z,4.85
2022-08-19T14:33:48.581Z,4.35
2022-08-19T14:36:15.687Z,4.13
2022-08-19T14:38:43.151Z,4.38
2022-08-19T14:41:20.266Z,3.83
2022-08-19T14:43:50.734Z,4.13
2022-08-19T14:46:22.365Z,4.10
2022-08-19T14:48:52.666Z,4.53
2022-08-19T14:51:22.482Z,4.68
2022-08-19T14:53:50.160Z,5.40
2022-08-19T14:56:24.083Z,5.80
2022-08-19T14:58:52.653Z,5.60
2022-08-19T15:01:22.299Z,6.50
2022-08-19T15:03:50.212Z,6.28
2022-08-19T15:06:18.111Z,6.57
2022-08-19T15:08:45.811Z,6.70
2022-08-19T15:11:17.430Z,7.40
2022-08-19T15:13:47.406Z,7.97
2022-08-19T15:16:17.752Z,6.90
2022-08-19T15:18:47.696Z,7.35
2022-08-19T15:21:27.250Z,6.70
2022-08-19T15:23:57.533Z,6.57
2022-08-19T15:30:01.506Z,6.90
2022-08-19T15:32:31.560Z,6.20
2022-08-19T15:35:04.355Z,7.38
2022-08-19T15:37:31.734Z,7.95
2022-08-19T15:39:58.825Z,7.07
2022-08-19T15:42:29.793Z,6.65
2022-08-19T15:45:00.402Z,6.00
2022-08-19T15:47:35.043Z,6.40
2022-08-19T15:50:21.625Z,6.15
2022-08-19T15:52:52.300Z,6.20
2022-08-19T15:55:33.225Z,8.07
2022-08-19T15:58:28.987Z,7.25
2022-08-19T16:01:27.397Z,7.00
2022-08-19T16:04:16.333Z,7.07
2022-08-19T16:06:50.786Z,7.05
2022-08-19T16:09:24.923Z,7.22
2022-08-19T16:12:01.648Z,6.63
2022-08-19T16:14:33.110Z,7.85
2022-08-19T16:17:00.191Z,6.55
2022-08-19T16:19:27.553Z,6.80
2022-08-19T16:21:56.865Z,7.13
2022-08-19T16:24:28.229Z,7.15
2022-08-19T16:26:56.887Z,6.78
2022-08-19T16:29:34.518Z,6.30
2022-08-19T16:32:11.103Z,6.97
2022-08-19T16:34:42.635Z,6.30
2022-08-19T16:37:10.355Z,7.22
2022-08-19T16:39:38.071Z,6.68
2022-08-19T16:42:07.767Z,6.40
2022-08-19T16:44:36.628Z,7.00
2022-08-19T16:47:03.909Z,6.00
2022-08-19T16:49:54.504Z,5.78
2022-08-19T16:52:19.909Z,5.93
2022-08-19T16:54:47.719Z,5.93
2022-08-19T16:57:14.678Z,5.60
2022-08-19T16:59:48.203Z,6.45
2022-08-19T17:02:22.961Z,5.75
2022-08-19T17:04:57.557Z,5.93
2022-08-19T17:07:28.217Z,6.32
2022-08-19T17:09:56.416Z,6.35
2022-08-19T17:12:30.590Z,5.97
2022-08-19T17:15:01.285Z,5.90
2022-08-19T17:17:30.064Z,6.20
2022-08-19T17:19:59.137Z,6.05
2022-08-19T17:22:26.772Z,5.45
2022-08-19T17:24:56.124Z,5.60
2022-08-19T17:27:32.215Z,5.97
2022-08-19T17:30:02.211Z,5.68
2022-08-19T17:32:34.661Z,5.82
2022-08-19T17:35:04.000Z,5.90
2022-08-19T17:37:30.864Z,6.20
2022-08-19T17:39:57.970Z,5.85
2022-08-19T17:42:24.942Z,6.05
2022-08-19T17:44:51.803Z,6.70
2022-08-19T17:47:19.411Z,7.60
2022-08-19T17:49:46.808Z,9.27
2022-08-19T17:52:14.031Z,9.93
2022-08-19T17:54:44.609Z,9.40
2022-08-19T17:57:11.675Z,9.98
2022-08-19T17:59:38.831Z,9.13
2022-08-19T18:02:10.066Z,10.50
2022-08-19T18:04:38.365Z,10.38
2022-08-19T18:07:06.190Z,9.32
2022-08-19T18:09:42.459Z,9.23
2022-08-19T18:12:13.876Z,9.23
2022-08-19T18:14:42.197Z,8.23
2022-08-19T18:17:14.134Z,9.23
2022-08-19T18:19:43.852Z,8.20
2022-08-19T18:22:36.509Z,8.07
2022-08-19T18:25:13.154Z,8.07
2022-08-19T18:27:40.296Z,7.63
2022-08-19T18:30:08.291Z,7.80
2022-08-19T18:32:39.204Z,8.25
2022-08-19T18:35:12.696Z,7.25
2022-08-19T18:37:45.400Z,6.18
2022-08-19T18:40:38.252Z,5.47
2022-08-19T18:43:24.774Z,4.65
2022-08-19T18:46:10.609Z,4.45
2022-08-19T18:48:57.844Z,3.75
2022-08-19T18:51:29.859Z,3.97
2022-08-19T18:53:58.732Z,4.22
2022-08-19T18:56:29.168Z,4.10
2022-08-19T18:58:58.893Z,4.10
2022-08-19T19:01:31.809Z,4.55
2022-08-19T19:04:10.404Z,4.53
2022-08-19T19:06:40.414Z,4.53
2022-08-19T19:09:11.110Z,4.68
2022-08-19T19:11:43.998Z,4.95
2022-08-19T19:14:38.773Z,4.25
2022-08-19T19:17:13.804Z,4.35
2022-08-19T19:19:42.651Z,4.30
2022-08-19T19:22:18.259Z,4.43
2022-08-19T19:24:45.464Z,4.22
2022-08-19T19:27:15.844Z,4.13
2022-08-19T19:29:42.981Z,3.53
2022-08-19T19:32:19.530Z,3.53
2022-08-19T19:34:46.723Z,3.55
2022-08-19T19:37:13.932Z,4.10
2022-08-19T19:39:45.425Z,3.80
2022-08-19T19:42:21.329Z,3.92
2022-08-19T19:44:51.880Z,4.15
2022-08-19T19:47:19.534Z,4.05
2022-08-19T19:50:13.226Z,4.07
2022-08-19T19:52:40.697Z,4.13
2022-08-19T19:55:15.535Z,4.68
2022-08-19T20:00:11.134Z,4.80
2022-08-19T20:02:38.036Z,5.28
2022-08-19T20:05:06.219Z,5.45
2022-08-19T20:07:51.602Z,6.00
2022-08-19T20:10:18.670Z,4.95
2022-08-19T20:12:45.617Z,5.55
2022-08-19T20:15:13.003Z,5.93
2022-08-19T20:17:42.905Z,5.38
2022-08-19T20:20:15.431Z,5.65
2022-08-19T20:22:43.775Z,5.75
2022-08-19T20:25:13.001Z,5.88
2022-08-19T20:27:41.122Z,6.40
2022-08-19T20:30:19.135Z,6.93
2022-08-19T20:32:48.235Z,6.00
2022-08-19T20:35:19.671Z,6.40
2022-08-19T20:37:46.714Z,6.85
2022-08-19T20:40:15.334Z,6.95
2022-08-19T20:42:43.772Z,8.15
2022-08-19T20:45:29.427Z,6.95
2022-08-19T20:47:59.439Z,7.13
2022-08-19T20:50:26.308Z,7.30
2022-08-19T20:52:57.452Z,8.40
2022-08-19T20:55:26.368Z,8.48
2022-08-19T20:57:53.973Z,8.48
2022-08-19T21:00:21.051Z,9.07
2022-08-19T21:02:48.004Z,8.85
2022-08-19T21:05:15.045Z,8.45
2022-08-19T21:07:42.699Z,8.85
2022-08-19T21:10:09.845Z,9.88
2022-08-19T21:12:36.865Z,9.05
2022-08-19T21:15:04.949Z,8.82
2022-08-19T21:17:31.811Z,8.82
2022-08-19T21:19:58.839Z,7.72
2022-08-19T21:22:25.920Z,7.95
2022-08-19T21:24:52.834Z,7.57
2022-08-19T21:27:19.696Z,8.23
2022-08-19T21:29:46.546Z,8.02
2022-08-19T21:32:14.053Z,7.60
2022-08-19T21:34:42.728Z,8.15
2022-08-19T21:37:25.320Z,8.13
2022-08-19T21:39:56.694Z,7.55
2022-08-19T21:42:24.214Z,7.57
2022-08-19T21:44:51.825Z,7.72
2022-08-19T21:47:18.840Z,8.07
2022-08-19T21:49:46.074Z,9.10
2022-08-19T21:52:13.472Z,8.90
2022-08-19T21:54:40.639Z,8.10
2022-08-19T21:57:10.850Z,8.18
2022-08-19T21:59:44.225Z,7.43
2022-08-19T22:02:20.411Z,6.55
2022-08-19T22:04:52.839Z,6.50
2022-08-19T22:07:21.695Z,6.88
2022-08-19T22:09:51.443Z,7.45
2022-08-19T22:12:29.267Z,7.28
2022-08-19T22:14:58.399Z,7.70
2022-08-19T22:17:27.535Z,7.82
2022-08-19T22:19:56.035Z,7.78
2022-08-19T22:22:30.572Z,8.10
2022-08-19T22:25:11.994Z,8.60
2022-08-19T22:27:39.678Z,8.45
2022-08-19T22:30:11.302Z,7.90
2022-08-19T22:32:56.165Z,8.10
2022-08-19T22:35:25.405Z,8.00
2022-08-19T22:37:52.245Z,7.85
2022-08-19T22:40:26.469Z,7.10
2022-08-19T22:43:14.404Z,7.63
2022-08-19T22:45:54.674Z,7.88
2022-08-19T22:48:34.354Z,8.38
2022-08-19T22:51:19.757Z,9.82
2022-08-19T22:56:19.181Z,8.55
2022-08-19T22:58:50.108Z,9.07
2022-08-19T23:01:24.826Z,8.65
2022-08-19T23:03:56.408Z,9.18
2022-08-19T23:06:23.303Z,8.23
2022-08-19T23:09:00.348Z,9.48
2022-08-19T23:11:27.202Z,10.68
2022-08-19T23:13:54.082Z,10.38
2022-08-19T23:16:21.246Z,9.25
2022-08-19T23:18:48.635Z,10.25
2022-08-19T23:21:21.893Z,9.73
2022-08-19T23:23:48.905Z,9.88
2022-08-19T23:26:15.742Z,10.48
2022-08-19T23:29:01.098Z,10.35
2022-08-19T23:33:54.978Z,9.93
2022-08-19T23:36:27.023Z,9.85
2022-08-19T23:38:53.907Z,9.73
2022-08-19T23:41:27.189Z,10.13
2022-08-19T23:43:54.956Z,10.45
2022-08-19T23:46:28.009Z,10.13
2022-08-19T23:48:57.309Z,10.65
2022-08-19T23:51:27.039Z,9.75
2022-08-19T23:53:54.443Z,9.73
2022-08-19T23:56:30.429Z,9.82
2022-08-19T23:58:57.360Z,9.70
